sensor_id;sensor_type;location;lat;lon;timestamp;P1;durP1;ratioP1;P2;durP2;ratioP2
66628;SDS011;53532;53.084;6.352;2022-12-11T00:01:07;159.03;;;35.07;;
66628;SDS011;53532;53.084;6.352;2022-12-11T00:03:33;139.90;;;32.87;;
66628;SDS011;53532;53.084;6.352;2022-12-11T00:05:59;157.63;;;36.00;;
66628;SDS011;53532;53.084;6.352;2022-12-11T00:08:29;170.13;;;35.33;;
66628;SDS011;53532;53.084;6.352;2022-12-11T00:10:55;140.23;;;34.40;;
66628;SDS011;53532;53.084;6.352;2022-12-11T00:13:21;164.97;;;37.03;;
66628;SDS011;53532;53.084;6.352;2022-12-11T00:15:48;181.03;;;35.93;;
66628;SDS011;53532;53.084;6.352;2022-12-11T00:18:14;149.63;;;35.27;;
66628;SDS011;53532;53.084;6.352;2022-12-11T00:20:41;163.83;;;35.83;;
66628;SDS011;53532;53.084;6.352;2022-12-11T00:23:07;147.27;;;35.13;;
66628;SDS011;53532;53.084;6.352;2022-12-11T00:25:34;150.13;;;35.07;;
66628;SDS011;53532;53.084;6.352;2022-12-11T00:28:05;130.97;;;32.93;;
66628;SDS011;53532;53.084;6.352;2022-12-11T00:30:31;133.87;;;33.07;;
66628;SDS011;53532;53.084;6.352;2022-12-11T00:32:59;133.10;;;33.53;;
66628;SDS011;53532;53.084;6.352;2022-12-11T00:35:25;147.57;;;34.60;;
66628;SDS011;53532;53.084;6.352;2022-12-11T00:37:51;133.20;;;34.10;;
66628;SDS011;53532;53.084;6.352;2022-12-11T00:40:17;127.30;;;33.63;;
66628;SDS011;53532;53.084;6.352;2022-12-11T00:42:44;147.17;;;35.13;;
66628;SDS011;53532;53.084;6.352;2022-12-11T00:45:10;156.90;;;35.17;;
66628;SDS011;53532;53.084;6.352;2022-12-11T00:47:36;165.67;;;37.13;;
66628;SDS011;53532;53.084;6.352;2022-12-11T00:50:04;153.80;;;35.73;;
66628;SDS011;53532;53.084;6.352;2022-12-11T00:52:31;157.13;;;37.67;;
66628;SDS011;53532;53.084;6.352;2022-12-11T00:54:57;178.80;;;37.80;;
66628;SDS011;53532;53.084;6.352;2022-12-11T00:57:23;164.83;;;37.07;;
66628;SDS011;53532;53.084;6.352;2022-12-11T00:59:49;182.83;;;37.43;;
66628;SDS011;53532;53.084;6.352;2022-12-11T01:02:15;183.33;;;39.37;;
66628;SDS011;53532;53.084;6.352;2022-12-11T01:04:41;189.53;;;38.30;;
66628;SDS011;53532;53.084;6.352;2022-12-11T01:07:09;170.90;;;37.90;;
66628;SDS011;53532;53.084;6.352;2022-12-11T01:09:35;191.57;;;39.90;;
66628;SDS011;53532;53.084;6.352;2022-12-11T01:12:20;194.87;;;39.23;;
66628;SDS011;53532;53.084;6.352;2022-12-11T01:14:46;175.13;;;39.23;;
66628;SDS011;53532;53.084;6.352;2022-12-11T01:17:12;150.73;;;36.40;;
66628;SDS011;53532;53.084;6.352;2022-12-11T01:19:38;173.93;;;38.00;;
66628;SDS011;53532;53.084;6.352;2022-12-11T01:22:04;169.93;;;37.13;;
66628;SDS011;53532;53.084;6.352;2022-12-11T01:24:32;156.30;;;36.73;;
66628;SDS011;53532;53.084;6.352;2022-12-11T01:26:58;165.43;;;38.07;;
66628;SDS011;53532;53.084;6.352;2022-12-11T01:29:24;179.10;;;39.20;;
66628;SDS011;53532;53.084;6.352;2022-12-11T01:31:50;190.77;;;40.80;;
66628;SDS011;53532;53.084;6.352;2022-12-11T01:34:16;139.97;;;34.57;;
66628;SDS011;53532;53.084;6.352;2022-12-11T01:36:43;164.93;;;36.50;;
66628;SDS011;53532;53.084;6.352;2022-12-11T01:39:09;200.47;;;38.60;;
66628;SDS011;53532;53.084;6.352;2022-12-11T01:41:36;182.47;;;38.87;;
66628;SDS011;53532;53.084;6.352;2022-12-11T01:44:03;156.07;;;35.97;;
66628;SDS011;53532;53.084;6.352;2022-12-11T01:46:30;169.50;;;36.20;;
66628;SDS011;53532;53.084;6.352;2022-12-11T01:48:57;192.37;;;38.40;;
66628;SDS011;53532;53.084;6.352;2022-12-11T01:51:24;182.60;;;38.23;;
66628;SDS011;53532;53.084;6.352;2022-12-11T01:53:50;176.13;;;36.87;;
66628;SDS011;53532;53.084;6.352;2022-12-11T01:56:18;206.63;;;39.07;;
66628;SDS011;53532;53.084;6.352;2022-12-11T01:58:46;180.33;;;37.60;;
66628;SDS011;53532;53.084;6.352;2022-12-11T02:01:15;175.93;;;36.80;;
66628;SDS011;53532;53.084;6.352;2022-12-11T02:03:44;192.87;;;37.57;;
66628;SDS011;53532;53.084;6.352;2022-12-11T02:08:51;155.48;;;35.42;;
66628;SDS011;53532;53.084;6.352;2022-12-11T02:11:18;167.07;;;36.50;;
66628;SDS011;53532;53.084;6.352;2022-12-11T02:13:48;185.93;;;38.17;;
66628;SDS011;53532;53.084;6.352;2022-12-11T02:16:17;149.57;;;34.65;;
66628;SDS011;53532;53.084;6.352;2022-12-11T02:18:46;176.17;;;36.07;;
66628;SDS011;53532;53.084;6.352;2022-12-11T02:21:15;160.47;;;35.63;;
66628;SDS011;53532;53.084;6.352;2022-12-11T02:23:52;150.18;;;33.85;;
66628;SDS011;53532;53.084;6.352;2022-12-11T02:26:24;149.23;;;32.77;;
66628;SDS011;53532;53.084;6.352;2022-12-11T02:28:59;139.10;;;32.10;;
66628;SDS011;53532;53.084;6.352;2022-12-11T02:31:26;127.07;;;31.27;;
66628;SDS011;53532;53.084;6.352;2022-12-11T02:33:56;117.10;;;31.00;;
66628;SDS011;53532;53.084;6.352;2022-12-11T02:36:23;140.50;;;31.70;;
66628;SDS011;53532;53.084;6.352;2022-12-11T02:38:51;146.70;;;31.67;;
66628;SDS011;53532;53.084;6.352;2022-12-11T02:41:18;148.87;;;32.77;;
66628;SDS011;53532;53.084;6.352;2022-12-11T02:43:45;170.27;;;34.20;;
66628;SDS011;53532;53.084;6.352;2022-12-11T02:46:13;165.70;;;33.97;;
66628;SDS011;53532;53.084;6.352;2022-12-11T02:48:41;157.70;;;33.77;;
66628;SDS011;53532;53.084;6.352;2022-12-11T02:51:07;209.67;;;36.73;;
66628;SDS011;53532;53.084;6.352;2022-12-11T02:53:35;143.30;;;33.27;;
66628;SDS011;53532;53.084;6.352;2022-12-11T02:56:05;184.23;;;36.23;;
66628;SDS011;53532;53.084;6.352;2022-12-11T02:58:33;204.00;;;37.13;;
66628;SDS011;53532;53.084;6.352;2022-12-11T03:01:01;152.87;;;33.17;;
66628;SDS011;53532;53.084;6.352;2022-12-11T03:03:29;190.80;;;35.40;;
66628;SDS011;53532;53.084;6.352;2022-12-11T03:05:55;161.30;;;33.10;;
66628;SDS011;53532;53.084;6.352;2022-12-11T03:08:21;183.27;;;34.63;;
66628;SDS011;53532;53.084;6.352;2022-12-11T03:10:47;178.60;;;33.27;;
66628;SDS011;53532;53.084;6.352;2022-12-11T03:13:13;183.80;;;34.23;;
66628;SDS011;53532;53.084;6.352;2022-12-11T03:15:45;181.47;;;33.70;;
66628;SDS011;53532;53.084;6.352;2022-12-11T03:18:14;166.13;;;32.42;;
66628;SDS011;53532;53.084;6.352;2022-12-11T03:20:44;161.33;;;32.83;;
66628;SDS011;53532;53.084;6.352;2022-12-11T03:23:15;145.17;;;30.07;;
66628;SDS011;53532;53.084;6.352;2022-12-11T03:25:44;125.25;;;29.08;;
66628;SDS011;53532;53.084;6.352;2022-12-11T03:28:12;123.57;;;29.70;;
66628;SDS011;53532;53.084;6.352;2022-12-11T03:30:39;149.47;;;30.63;;
66628;SDS011;53532;53.084;6.352;2022-12-11T03:33:07;112.20;;;27.10;;
66628;SDS011;53532;53.084;6.352;2022-12-11T03:35:36;130.47;;;29.43;;
66628;SDS011;53532;53.084;6.352;2022-12-11T03:38:05;138.37;;;29.30;;
66628;SDS011;53532;53.084;6.352;2022-12-11T03:40:33;152.63;;;31.67;;
66628;SDS011;53532;53.084;6.352;2022-12-11T03:43:00;110.17;;;27.77;;
66628;SDS011;53532;53.084;6.352;2022-12-11T03:45:27;142.17;;;31.73;;
66628;SDS011;53532;53.084;6.352;2022-12-11T03:47:55;128.47;;;29.63;;
66628;SDS011;53532;53.084;6.352;2022-12-11T03:50:22;129.53;;;28.67;;
66628;SDS011;53532;53.084;6.352;2022-12-11T03:52:49;133.23;;;30.80;;
66628;SDS011;53532;53.084;6.352;2022-12-11T03:55:17;164.50;;;31.90;;
66628;SDS011;53532;53.084;6.352;2022-12-11T03:57:43;154.83;;;31.00;;
66628;SDS011;53532;53.084;6.352;2022-12-11T04:00:11;128.77;;;28.57;;
66628;SDS011;53532;53.084;6.352;2022-12-11T04:02:38;165.17;;;31.43;;
66628;SDS011;53532;53.084;6.352;2022-12-11T04:05:04;156.20;;;32.67;;
66628;SDS011;53532;53.084;6.352;2022-12-11T04:07:31;162.37;;;31.63;;
66628;SDS011;53532;53.084;6.352;2022-12-11T04:09:58;187.57;;;33.80;;
66628;SDS011;53532;53.084;6.352;2022-12-11T04:12:25;158.03;;;33.10;;
66628;SDS011;53532;53.084;6.352;2022-12-11T04:14:51;147.07;;;29.60;;
66628;SDS011;53532;53.084;6.352;2022-12-11T04:17:26;161.87;;;31.77;;
66628;SDS011;53532;53.084;6.352;2022-12-11T04:20:11;149.47;;;31.43;;
66628;SDS011;53532;53.084;6.352;2022-12-11T04:22:56;165.90;;;32.50;;
66628;SDS011;53532;53.084;6.352;2022-12-11T04:25:41;168.07;;;33.43;;
66628;SDS011;53532;53.084;6.352;2022-12-11T04:28:08;149.83;;;31.67;;
66628;SDS011;53532;53.084;6.352;2022-12-11T04:30:35;138.33;;;30.67;;
66628;SDS011;53532;53.084;6.352;2022-12-11T04:33:01;143.03;;;30.77;;
66628;SDS011;53532;53.084;6.352;2022-12-11T04:35:27;192.03;;;34.77;;
66628;SDS011;53532;53.084;6.352;2022-12-11T04:37:53;181.07;;;35.17;;
66628;SDS011;53532;53.084;6.352;2022-12-11T04:40:19;153.07;;;31.80;;
66628;SDS011;53532;53.084;6.352;2022-12-11T04:42:46;154.13;;;32.13;;
66628;SDS011;53532;53.084;6.352;2022-12-11T04:45:13;119.33;;;31.17;;
66628;SDS011;53532;53.084;6.352;2022-12-11T04:47:40;137.70;;;31.20;;
66628;SDS011;53532;53.084;6.352;2022-12-11T04:50:10;130.63;;;30.23;;
66628;SDS011;53532;53.084;6.352;2022-12-11T04:52:36;119.77;;;29.50;;
66628;SDS011;53532;53.084;6.352;2022-12-11T04:55:02;139.83;;;31.47;;
66628;SDS011;53532;53.084;6.352;2022-12-11T04:57:29;133.63;;;30.10;;
66628;SDS011;53532;53.084;6.352;2022-12-11T04:59:55;135.03;;;30.87;;
66628;SDS011;53532;53.084;6.352;2022-12-11T05:02:22;143.47;;;30.57;;
66628;SDS011;53532;53.084;6.352;2022-12-11T05:04:48;129.77;;;31.43;;
66628;SDS011;53532;53.084;6.352;2022-12-11T05:07:14;124.30;;;30.60;;
66628;SDS011;53532;53.084;6.352;2022-12-11T05:09:40;120.63;;;31.17;;
66628;SDS011;53532;53.084;6.352;2022-12-11T05:12:07;117.10;;;30.27;;
66628;SDS011;53532;53.084;6.352;2022-12-11T05:14:33;137.07;;;32.20;;
66628;SDS011;53532;53.084;6.352;2022-12-11T05:16:59;136.77;;;31.93;;
66628;SDS011;53532;53.084;6.352;2022-12-11T05:19:27;145.67;;;31.73;;
66628;SDS011;53532;53.084;6.352;2022-12-11T05:21:53;124.90;;;31.43;;
66628;SDS011;53532;53.084;6.352;2022-12-11T05:24:19;129.93;;;30.73;;
66628;SDS011;53532;53.084;6.352;2022-12-11T05:26:45;145.13;;;32.60;;
66628;SDS011;53532;53.084;6.352;2022-12-11T05:29:11;147.77;;;31.03;;
66628;SDS011;53532;53.084;6.352;2022-12-11T05:31:37;179.90;;;33.27;;
66628;SDS011;53532;53.084;6.352;2022-12-11T05:34:03;132.00;;;31.67;;
66628;SDS011;53532;53.084;6.352;2022-12-11T05:36:31;165.10;;;33.40;;
66628;SDS011;53532;53.084;6.352;2022-12-11T05:38:58;120.73;;;30.07;;
66628;SDS011;53532;53.084;6.352;2022-12-11T05:41:26;116.33;;;30.07;;
66628;SDS011;53532;53.084;6.352;2022-12-11T05:43:52;130.60;;;32.53;;
66628;SDS011;53532;53.084;6.352;2022-12-11T05:46:19;172.90;;;32.87;;
66628;SDS011;53532;53.084;6.352;2022-12-11T05:48:47;186.90;;;34.47;;
66628;SDS011;53532;53.084;6.352;2022-12-11T05:51:13;170.87;;;33.20;;
66628;SDS011;53532;53.084;6.352;2022-12-11T05:53:41;157.03;;;31.20;;
66628;SDS011;53532;53.084;6.352;2022-12-11T05:56:09;157.77;;;31.43;;
66628;SDS011;53532;53.084;6.352;2022-12-11T05:58:36;141.13;;;32.20;;
66628;SDS011;53532;53.084;6.352;2022-12-11T06:01:05;192.93;;;34.23;;
66628;SDS011;53532;53.084;6.352;2022-12-11T06:03:32;145.47;;;31.93;;
66628;SDS011;53532;53.084;6.352;2022-12-11T06:06:00;140.77;;;32.43;;
66628;SDS011;53532;53.084;6.352;2022-12-11T06:08:26;151.43;;;32.73;;
66628;SDS011;53532;53.084;6.352;2022-12-11T06:10:54;186.50;;;33.33;;
66628;SDS011;53532;53.084;6.352;2022-12-11T06:13:20;158.80;;;31.47;;
66628;SDS011;53532;53.084;6.352;2022-12-11T06:15:46;183.53;;;35.00;;
66628;SDS011;53532;53.084;6.352;2022-12-11T06:18:12;172.40;;;33.20;;
66628;SDS011;53532;53.084;6.352;2022-12-11T06:20:39;163.43;;;34.17;;
66628;SDS011;53532;53.084;6.352;2022-12-11T06:23:05;148.87;;;32.00;;
66628;SDS011;53532;53.084;6.352;2022-12-11T06:25:31;136.57;;;31.27;;
66628;SDS011;53532;53.084;6.352;2022-12-11T06:27:59;147.37;;;30.23;;
66628;SDS011;53532;53.084;6.352;2022-12-11T06:30:25;167.13;;;33.27;;
66628;SDS011;53532;53.084;6.352;2022-12-11T06:32:51;145.17;;;30.10;;
66628;SDS011;53532;53.084;6.352;2022-12-11T06:35:17;214.47;;;33.90;;
66628;SDS011;53532;53.084;6.352;2022-12-11T06:37:43;167.30;;;31.87;;
66628;SDS011;53532;53.084;6.352;2022-12-11T06:40:09;139.63;;;30.93;;
66628;SDS011;53532;53.084;6.352;2022-12-11T06:42:37;139.57;;;30.83;;
66628;SDS011;53532;53.084;6.352;2022-12-11T06:45:05;142.50;;;30.77;;
66628;SDS011;53532;53.084;6.352;2022-12-11T06:47:31;161.93;;;32.63;;
66628;SDS011;53532;53.084;6.352;2022-12-11T06:49:57;196.23;;;33.43;;
66628;SDS011;53532;53.084;6.352;2022-12-11T06:52:25;141.13;;;31.33;;
66628;SDS011;53532;53.084;6.352;2022-12-11T06:54:51;147.57;;;30.30;;
66628;SDS011;53532;53.084;6.352;2022-12-11T06:57:18;171.67;;;32.83;;
66628;SDS011;53532;53.084;6.352;2022-12-11T06:59:45;186.47;;;33.00;;
66628;SDS011;53532;53.084;6.352;2022-12-11T07:02:13;147.40;;;31.40;;
66628;SDS011;53532;53.084;6.352;2022-12-11T07:04:39;168.77;;;32.53;;
66628;SDS011;53532;53.084;6.352;2022-12-11T07:07:05;134.40;;;30.80;;
66628;SDS011;53532;53.084;6.352;2022-12-11T07:09:32;152.77;;;32.23;;
66628;SDS011;53532;53.084;6.352;2022-12-11T07:11:58;139.27;;;30.47;;
66628;SDS011;53532;53.084;6.352;2022-12-11T07:14:24;149.30;;;33.13;;
66628;SDS011;53532;53.084;6.352;2022-12-11T07:16:50;142.23;;;32.60;;
66628;SDS011;53532;53.084;6.352;2022-12-11T07:19:18;142.43;;;32.00;;
66628;SDS011;53532;53.084;6.352;2022-12-11T07:21:44;164.57;;;32.17;;
66628;SDS011;53532;53.084;6.352;2022-12-11T07:24:10;162.30;;;33.93;;
66628;SDS011;53532;53.084;6.352;2022-12-11T07:26:36;139.57;;;30.57;;
66628;SDS011;53532;53.084;6.352;2022-12-11T07:29:03;142.07;;;31.73;;
66628;SDS011;53532;53.084;6.352;2022-12-11T07:31:29;159.70;;;32.57;;
66628;SDS011;53532;53.084;6.352;2022-12-11T07:33:56;155.23;;;33.23;;
66628;SDS011;53532;53.084;6.352;2022-12-11T07:36:25;149.03;;;32.87;;
66628;SDS011;53532;53.084;6.352;2022-12-11T07:38:51;140.27;;;32.13;;
66628;SDS011;53532;53.084;6.352;2022-12-11T07:41:18;134.10;;;31.40;;
66628;SDS011;53532;53.084;6.352;2022-12-11T07:43:44;158.93;;;35.27;;
66628;SDS011;53532;53.084;6.352;2022-12-11T07:46:11;164.10;;;36.27;;
66628;SDS011;53532;53.084;6.352;2022-12-11T07:48:38;156.27;;;35.77;;
66628;SDS011;53532;53.084;6.352;2022-12-11T07:51:08;161.97;;;33.80;;
66628;SDS011;53532;53.084;6.352;2022-12-11T07:53:35;185.03;;;34.57;;
66628;SDS011;53532;53.084;6.352;2022-12-11T07:56:02;190.97;;;34.67;;
66628;SDS011;53532;53.084;6.352;2022-12-11T07:58:28;186.63;;;35.70;;
66628;SDS011;53532;53.084;6.352;2022-12-11T08:00:54;177.63;;;33.97;;
66628;SDS011;53532;53.084;6.352;2022-12-11T08:03:20;157.67;;;33.07;;
66628;SDS011;53532;53.084;6.352;2022-12-11T08:05:46;161.23;;;33.73;;
66628;SDS011;53532;53.084;6.352;2022-12-11T08:08:13;183.50;;;34.50;;
66628;SDS011;53532;53.084;6.352;2022-12-11T08:10:41;185.43;;;35.97;;
66628;SDS011;53532;53.084;6.352;2022-12-11T08:13:07;153.43;;;35.37;;
66628;SDS011;53532;53.084;6.352;2022-12-11T08:15:34;164.10;;;34.93;;
66628;SDS011;53532;53.084;6.352;2022-12-11T08:18:00;173.20;;;34.57;;
66628;SDS011;53532;53.084;6.352;2022-12-11T08:20:26;176.47;;;35.17;;
66628;SDS011;53532;53.084;6.352;2022-12-11T08:22:52;180.03;;;34.03;;
66628;SDS011;53532;53.084;6.352;2022-12-11T08:25:18;198.63;;;36.70;;
66628;SDS011;53532;53.084;6.352;2022-12-11T08:27:46;204.17;;;36.70;;
66628;SDS011;53532;53.084;6.352;2022-12-11T08:30:12;169.37;;;34.07;;
66628;SDS011;53532;53.084;6.352;2022-12-11T08:32:38;179.37;;;37.37;;
66628;SDS011;53532;53.084;6.352;2022-12-11T08:35:05;173.20;;;34.23;;
66628;SDS011;53532;53.084;6.352;2022-12-11T08:37:32;163.80;;;36.20;;
66628;SDS011;53532;53.084;6.352;2022-12-11T08:39:58;177.10;;;36.07;;
66628;SDS011;53532;53.084;6.352;2022-12-11T08:42:24;182.90;;;36.67;;
66628;SDS011;53532;53.084;6.352;2022-12-11T08:44:52;203.23;;;38.47;;
66628;SDS011;53532;53.084;6.352;2022-12-11T08:47:18;184.63;;;37.47;;
66628;SDS011;53532;53.084;6.352;2022-12-11T08:49:44;182.17;;;37.70;;
66628;SDS011;53532;53.084;6.352;2022-12-11T08:52:10;194.73;;;37.93;;
66628;SDS011;53532;53.084;6.352;2022-12-11T08:54:36;180.67;;;34.90;;
66628;SDS011;53532;53.084;6.352;2022-12-11T08:57:03;197.33;;;37.60;;
66628;SDS011;53532;53.084;6.352;2022-12-11T08:59:29;149.37;;;35.20;;
66628;SDS011;53532;53.084;6.352;2022-12-11T09:01:57;173.80;;;35.60;;
66628;SDS011;53532;53.084;6.352;2022-12-11T09:04:23;172.30;;;35.00;;
66628;SDS011;53532;53.084;6.352;2022-12-11T09:06:49;169.73;;;35.77;;
66628;SDS011;53532;53.084;6.352;2022-12-11T09:09:15;184.60;;;36.90;;
66628;SDS011;53532;53.084;6.352;2022-12-11T09:11:41;204.87;;;37.90;;
66628;SDS011;53532;53.084;6.352;2022-12-11T09:14:07;205.07;;;37.93;;
66628;SDS011;53532;53.084;6.352;2022-12-11T09:16:34;234.70;;;40.93;;
66628;SDS011;53532;53.084;6.352;2022-12-11T09:19:06;173.87;;;36.33;;
66628;SDS011;53532;53.084;6.352;2022-12-11T09:21:32;159.83;;;35.50;;
66628;SDS011;53532;53.084;6.352;2022-12-11T09:24:00;147.50;;;32.83;;
66628;SDS011;53532;53.084;6.352;2022-12-11T09:26:26;145.33;;;33.47;;
66628;SDS011;53532;53.084;6.352;2022-12-11T09:28:53;166.87;;;34.67;;
66628;SDS011;53532;53.084;6.352;2022-12-11T09:31:20;155.03;;;34.87;;
66628;SDS011;53532;53.084;6.352;2022-12-11T09:33:49;146.47;;;31.80;;
66628;SDS011;53532;53.084;6.352;2022-12-11T09:36:17;174.07;;;35.50;;
66628;SDS011;53532;53.084;6.352;2022-12-11T09:38:43;158.63;;;34.13;;
66628;SDS011;53532;53.084;6.352;2022-12-11T09:41:28;159.03;;;33.87;;
66628;SDS011;53532;53.084;6.352;2022-12-11T09:43:57;147.47;;;34.17;;
66628;SDS011;53532;53.084;6.352;2022-12-11T09:46:24;154.93;;;34.93;;
66628;SDS011;53532;53.084;6.352;2022-12-11T09:48:51;165.27;;;35.37;;
66628;SDS011;53532;53.084;6.352;2022-12-11T09:51:20;169.83;;;35.33;;
66628;SDS011;53532;53.084;6.352;2022-12-11T09:53:47;183.80;;;35.10;;
66628;SDS011;53532;53.084;6.352;2022-12-11T09:56:16;214.00;;;37.47;;
66628;SDS011;53532;53.084;6.352;2022-12-11T09:58:46;173.17;;;35.23;;
66628;SDS011;53532;53.084;6.352;2022-12-11T10:01:16;150.93;;;33.73;;
66628;SDS011;53532;53.084;6.352;2022-12-11T10:03:58;132.87;;;32.80;;
66628;SDS011;53532;53.084;6.352;2022-12-11T10:06:29;180.95;;;35.30;;
66628;SDS011;53532;53.084;6.352;2022-12-11T10:08:59;151.10;;;36.08;;
66628;SDS011;53532;53.084;6.352;2022-12-11T10:11:34;167.47;;;36.47;;
66628;SDS011;53532;53.084;6.352;2022-12-11T10:14:05;166.00;;;34.30;;
66628;SDS011;53532;53.084;6.352;2022-12-11T10:16:37;176.23;;;36.28;;
66628;SDS011;53532;53.084;6.352;2022-12-11T10:19:03;175.20;;;34.73;;
66628;SDS011;53532;53.084;6.352;2022-12-11T10:21:33;137.87;;;32.90;;
66628;SDS011;53532;53.084;6.352;2022-12-11T10:24:01;134.52;;;35.08;;
66628;SDS011;53532;53.084;6.352;2022-12-11T10:26:28;120.43;;;32.10;;
66628;SDS011;53532;53.084;6.352;2022-12-11T10:28:55;148.13;;;35.60;;
66628;SDS011;53532;53.084;6.352;2022-12-11T10:31:25;142.97;;;33.87;;
66628;SDS011;53532;53.084;6.352;2022-12-11T10:33:54;131.90;;;32.63;;
66628;SDS011;53532;53.084;6.352;2022-12-11T10:36:25;143.43;;;33.87;;
66628;SDS011;53532;53.084;6.352;2022-12-11T10:38:53;143.67;;;34.37;;
66628;SDS011;53532;53.084;6.352;2022-12-11T10:41:20;131.30;;;33.57;;
66628;SDS011;53532;53.084;6.352;2022-12-11T10:43:49;149.97;;;35.83;;
66628;SDS011;53532;53.084;6.352;2022-12-11T10:46:16;127.10;;;35.53;;
66628;SDS011;53532;53.084;6.352;2022-12-11T10:48:46;136.67;;;35.17;;
66628;SDS011;53532;53.084;6.352;2022-12-11T10:51:12;126.87;;;33.33;;
66628;SDS011;53532;53.084;6.352;2022-12-11T10:53:39;120.80;;;32.60;;
66628;SDS011;53532;53.084;6.352;2022-12-11T10:56:08;130.70;;;33.53;;
66628;SDS011;53532;53.084;6.352;2022-12-11T10:58:37;109.10;;;32.10;;
66628;SDS011;53532;53.084;6.352;2022-12-11T11:01:06;122.27;;;34.13;;
66628;SDS011;53532;53.084;6.352;2022-12-11T11:03:34;127.90;;;33.87;;
66628;SDS011;53532;53.084;6.352;2022-12-11T11:06:02;132.80;;;35.20;;
66628;SDS011;53532;53.084;6.352;2022-12-11T11:08:28;107.00;;;31.70;;
66628;SDS011;53532;53.084;6.352;2022-12-11T11:11:02;126.40;;;34.03;;
66628;SDS011;53532;53.084;6.352;2022-12-11T11:13:30;121.30;;;33.20;;
66628;SDS011;53532;53.084;6.352;2022-12-11T11:15:59;128.07;;;43.40;;
66628;SDS011;53532;53.084;6.352;2022-12-11T11:18:26;121.53;;;36.20;;
66628;SDS011;53532;53.084;6.352;2022-12-11T11:20:52;124.13;;;36.70;;
66628;SDS011;53532;53.084;6.352;2022-12-11T11:23:19;118.30;;;40.50;;
66628;SDS011;53532;53.084;6.352;2022-12-11T11:25:49;126.60;;;33.93;;
66628;SDS011;53532;53.084;6.352;2022-12-11T11:28:17;109.77;;;35.60;;
66628;SDS011;53532;53.084;6.352;2022-12-11T11:30:54;127.77;;;32.73;;
66628;SDS011;53532;53.084;6.352;2022-12-11T11:33:21;111.83;;;33.33;;
66628;SDS011;53532;53.084;6.352;2022-12-11T11:35:50;124.50;;;32.13;;
66628;SDS011;53532;53.084;6.352;2022-12-11T11:38:17;112.43;;;34.57;;
66628;SDS011;53532;53.084;6.352;2022-12-11T11:40:45;113.13;;;35.43;;
66628;SDS011;53532;53.084;6.352;2022-12-11T11:43:15;127.53;;;32.70;;
66628;SDS011;53532;53.084;6.352;2022-12-11T11:45:43;123.83;;;33.30;;
66628;SDS011;53532;53.084;6.352;2022-12-11T11:48:16;109.33;;;33.43;;
66628;SDS011;53532;53.084;6.352;2022-12-11T11:50:46;102.00;;;31.40;;
66628;SDS011;53532;53.084;6.352;2022-12-11T11:53:16;117.63;;;33.97;;
66628;SDS011;53532;53.084;6.352;2022-12-11T11:55:45;97.53;;;33.17;;
66628;SDS011;53532;53.084;6.352;2022-12-11T11:58:14;111.50;;;35.67;;
66628;SDS011;53532;53.084;6.352;2022-12-11T12:00:41;109.77;;;34.57;;
66628;SDS011;53532;53.084;6.352;2022-12-11T12:03:08;90.47;;;30.33;;
66628;SDS011;53532;53.084;6.352;2022-12-11T12:05:37;101.97;;;31.43;;
66628;SDS011;53532;53.084;6.352;2022-12-11T12:08:08;91.93;;;30.90;;
66628;SDS011;53532;53.084;6.352;2022-12-11T12:10:38;98.10;;;32.90;;
66628;SDS011;53532;53.084;6.352;2022-12-11T12:13:09;95.73;;;33.37;;
66628;SDS011;53532;53.084;6.352;2022-12-11T12:15:39;96.95;;;31.35;;
66628;SDS011;53532;53.084;6.352;2022-12-11T12:18:11;102.70;;;34.83;;
66628;SDS011;53532;53.084;6.352;2022-12-11T12:20:42;102.57;;;32.17;;
66628;SDS011;53532;53.084;6.352;2022-12-11T12:23:14;101.70;;;31.33;;
66628;SDS011;53532;53.084;6.352;2022-12-11T12:25:46;110.40;;;31.27;;
66628;SDS011;53532;53.084;6.352;2022-12-11T12:28:15;89.50;;;34.10;;
66628;SDS011;53532;53.084;6.352;2022-12-11T12:30:48;89.82;;;33.70;;
66628;SDS011;53532;53.084;6.352;2022-12-11T12:33:23;86.60;;;30.63;;
66628;SDS011;53532;53.084;6.352;2022-12-11T12:35:54;97.20;;;31.30;;
66628;SDS011;53532;53.084;6.352;2022-12-11T12:38:22;90.00;;;32.43;;
66628;SDS011;53532;53.084;6.352;2022-12-11T12:40:51;87.90;;;29.83;;
66628;SDS011;53532;53.084;6.352;2022-12-11T12:43:30;90.63;;;31.03;;
66628;SDS011;53532;53.084;6.352;2022-12-11T12:46:02;86.40;;;30.57;;
66628;SDS011;53532;53.084;6.352;2022-12-11T12:48:29;94.47;;;30.47;;
66628;SDS011;53532;53.084;6.352;2022-12-11T12:50:57;85.43;;;31.10;;
66628;SDS011;53532;53.084;6.352;2022-12-11T12:53:24;92.07;;;34.33;;
66628;SDS011;53532;53.084;6.352;2022-12-11T12:55:51;99.10;;;32.13;;
66628;SDS011;53532;53.084;6.352;2022-12-11T12:58:23;85.80;;;30.87;;
66628;SDS011;53532;53.084;6.352;2022-12-11T13:00:49;85.40;;;29.63;;
66628;SDS011;53532;53.084;6.352;2022-12-11T13:03:16;89.07;;;29.60;;
66628;SDS011;53532;53.084;6.352;2022-12-11T13:05:44;94.27;;;30.27;;
66628;SDS011;53532;53.084;6.352;2022-12-11T13:08:24;87.23;;;32.53;;
66628;SDS011;53532;53.084;6.352;2022-12-11T13:10:55;98.78;;;35.20;;
66628;SDS011;53532;53.084;6.352;2022-12-11T13:13:28;91.10;;;32.80;;
66628;SDS011;53532;53.084;6.352;2022-12-11T13:16:04;94.03;;;31.98;;
66628;SDS011;53532;53.084;6.352;2022-12-11T13:18:31;95.93;;;33.37;;
66628;SDS011;53532;53.084;6.352;2022-12-11T13:20:58;93.47;;;33.70;;
66628;SDS011;53532;53.084;6.352;2022-12-11T13:23:27;100.93;;;32.17;;
66628;SDS011;53532;53.084;6.352;2022-12-11T13:25:55;102.00;;;32.40;;
66628;SDS011;53532;53.084;6.352;2022-12-11T13:28:23;99.73;;;32.20;;
66628;SDS011;53532;53.084;6.352;2022-12-11T13:31:04;95.67;;;34.83;;
66628;SDS011;53532;53.084;6.352;2022-12-11T13:33:31;87.53;;;31.15;;
66628;SDS011;53532;53.084;6.352;2022-12-11T13:36:11;90.07;;;31.70;;
66628;SDS011;53532;53.084;6.352;2022-12-11T13:38:44;97.00;;;32.17;;
66628;SDS011;53532;53.084;6.352;2022-12-11T13:41:11;86.97;;;31.02;;
66628;SDS011;53532;53.084;6.352;2022-12-11T13:43:38;86.83;;;30.57;;
66628;SDS011;53532;53.084;6.352;2022-12-11T13:46:06;85.60;;;29.53;;
66628;SDS011;53532;53.084;6.352;2022-12-11T13:48:34;94.40;;;35.23;;
66628;SDS011;53532;53.084;6.352;2022-12-11T13:51:01;94.23;;;35.13;;
66628;SDS011;53532;53.084;6.352;2022-12-11T13:53:28;92.63;;;34.43;;
66628;SDS011;53532;53.084;6.352;2022-12-11T13:55:56;105.87;;;44.30;;
66628;SDS011;53532;53.084;6.352;2022-12-11T13:58:23;99.73;;;38.13;;
66628;SDS011;53532;53.084;6.352;2022-12-11T14:00:53;92.37;;;32.30;;
66628;SDS011;53532;53.084;6.352;2022-12-11T14:03:22;87.73;;;31.33;;
66628;SDS011;53532;53.084;6.352;2022-12-11T14:05:48;91.03;;;34.80;;
66628;SDS011;53532;53.084;6.352;2022-12-11T14:08:16;92.07;;;38.23;;
66628;SDS011;53532;53.084;6.352;2022-12-11T14:10:45;94.30;;;33.63;;
66628;SDS011;53532;53.084;6.352;2022-12-11T14:13:18;103.60;;;35.35;;
66628;SDS011;53532;53.084;6.352;2022-12-11T14:15:46;107.78;;;39.65;;
66628;SDS011;53532;53.084;6.352;2022-12-11T14:18:13;104.10;;;36.83;;